La Grange, TX

1:00 AM CDT on March 28, 2017 (GMT -0500)
Horton Street | | Change Station

Elev 344 ft 29.92 °N, 96.87 °W | Updated 5 seconds ago

Partly Cloudy
Partly Cloudy
70.2 °F
Feels Like 70.2 °F
N
0.0
Wind Variable Wind from SSE
Gusts 0.0 mph

Today
High -- | Low -- °F
--% Chance of Precip.
Yesterday
High -- | Low -- °F
Precip. -- in
Pressure 29.85 in
Visibility 7.0 miles
Clouds Mostly Cloudy 700 ft
Mostly Cloudy 1700 ft
Dew Point 69 °F
Humidity 96%
Rainfall 0.00 in
Snow Depth Not available.
7:21 AM 7:43 PM
New Moon, 0% visible
METAR K3T5 280555Z AUTO 14003KT 7SM BKN007 BKN017 21/21 A2985 RMK AO2 T02100205 10283 20210 403000192
Pressure 29.85 in
Visibility 7.0 miles
Clouds Mostly Cloudy 700 ft
Mostly Cloudy 1700 ft
Dew Point 69 °F
Humidity 96%
Rainfall 0.00 in
Snow Depth Not available.
7:21 AM 7:43 PM
New Moon, 0% visible
METAR K3T5 280555Z AUTO 14003KT 7SM BKN007 BKN017 21/21 A2985 RMK AO2 T02100205 10283 20210 403000192

Get Severe Weather Alerts

Thanks for signing up!

Be on the lookout for a verification email in your inbox.

You'll start receiving the daily forecast at 8 AM.

×

10-Day Weather Forecast

Almanac

Astronomy

Mar. 28, 2017 Rise Set
Actual Time
Civil Twilight
Nautical Twilight
Astronomical Twilight
Moon
Length of Visible Light
Length of Day
Tomorrow will be .
, % of the Moon is Illuminated

Today's Extremes

State Highs State Lows

Community

WunderPhotos

Upload Photos

1,962,540 photos uploaded!

WunderBlog® & News

Nearby

Air Quality

  Air Quality AQ Index Pollutant
Not available.

Snow Depth

Station Depth Elevation

Earthquake Activity

City Distance Mag. Time & Date
Minimum magnitude displayed is 2.5.

Earthquake Activity

City Distance Mag. Time & Date
Minimum magnitude displayed is 2.5.

Coastal Water Temperatures

Place Temperature

Stations

Nearby Weather Stations

Station Location Temp. Windchill Dew Point Humidity Wind Precip. Elev Updated Type
                   

Watches & Warnings

There are currently no watches in effect.